createdAt,value
2022-10-19T00:01:12.025Z,12.57
2022-10-19T00:03:40.021Z,12.37
2022-10-19T00:06:18.164Z,12.35
2022-10-19T00:08:46.542Z,12.31
2022-10-19T00:11:14.377Z,12.16
2022-10-19T00:13:42.352Z,12.44
2022-10-19T00:16:12.194Z,12.56
2022-10-19T00:18:40.535Z,12.65
2022-10-19T00:21:10.282Z,12.94
2022-10-19T00:23:40.013Z,13.04
2022-10-19T00:26:08.316Z,13.06
2022-10-19T00:28:36.803Z,13.26
2022-10-19T00:31:06.050Z,13.12
2022-10-19T00:33:33.995Z,12.99
2022-10-19T00:36:02.434Z,13.08
2022-10-19T00:38:30.537Z,13.20
2022-10-19T00:40:59.819Z,13.19
2022-10-19T00:43:32.532Z,13.10
2022-10-19T00:46:00.389Z,13.20
2022-10-19T00:48:32.760Z,13.35
2022-10-19T00:51:01.022Z,13.28
2022-10-19T00:53:31.826Z,13.29
2022-10-19T00:56:06.897Z,13.13
2022-10-19T00:58:35.174Z,13.47
2022-10-19T01:01:06.113Z,13.23
2022-10-19T01:03:35.274Z,12.94
2022-10-19T01:06:04.090Z,12.96
2022-10-19T01:08:32.305Z,12.67
2022-10-19T01:11:14.505Z,13.02
2022-10-19T01:13:52.981Z,13.26
2022-10-19T01:16:27.486Z,13.08
2022-10-19T01:19:00.729Z,12.83
2022-10-19T01:21:35.836Z,12.98
2022-10-19T01:24:41.829Z,12.79
2022-10-19T01:27:40.272Z,13.15
2022-10-19T01:30:14.792Z,13.20
2022-10-19T01:33:11.170Z,12.96
2022-10-19T01:35:46.284Z,12.40
2022-10-19T01:38:24.082Z,12.79
2022-10-19T01:40:58.596Z,12.76
2022-10-19T01:43:39.428Z,12.85
2022-10-19T01:46:14.533Z,12.83
2022-10-19T01:48:46.857Z,12.71
2022-10-19T01:51:19.521Z,12.25
2022-10-19T01:53:50.367Z,12.18
2022-10-19T01:56:22.050Z,12.16
2022-10-19T01:58:52.255Z,12.15
2022-10-19T02:01:25.397Z,12.41
2022-10-19T02:03:54.711Z,12.31
2022-10-19T02:06:23.332Z,12.45
2022-10-19T02:08:53.671Z,12.51
2022-10-19T02:11:23.389Z,12.75
2022-10-19T02:13:57.786Z,12.54
2022-10-19T02:16:31.678Z,12.93
2022-10-19T02:19:01.257Z,12.98
2022-10-19T02:21:29.806Z,12.79
2022-10-19T02:23:57.666Z,12.50
2022-10-19T02:26:25.475Z,12.78
2022-10-19T02:28:55.887Z,13.00
2022-10-19T02:31:24.426Z,12.79
2022-10-19T02:33:54.421Z,13.06
2022-10-19T02:36:22.955Z,12.87
2022-10-19T02:38:51.043Z,12.95
2022-10-19T02:41:23.349Z,12.99
2022-10-19T02:43:57.059Z,13.11
2022-10-19T02:46:31.025Z,13.32
2022-10-19T02:49:02.201Z,13.31
2022-10-19T02:51:32.586Z,13.11
2022-10-19T02:54:04.160Z,13.27
2022-10-19T02:56:33.756Z,13.19
2022-10-19T02:59:01.771Z,13.08
2022-10-19T03:01:29.748Z,12.97
2022-10-19T03:03:57.674Z,12.93
2022-10-19T03:06:26.899Z,13.14
2022-10-19T03:08:54.671Z,13.34
2022-10-19T03:11:22.551Z,13.30
2022-10-19T03:13:50.457Z,13.14
2022-10-19T03:16:18.656Z,13.04
2022-10-19T03:18:49.372Z,12.84
2022-10-19T03:21:17.466Z,12.73
2022-10-19T03:23:46.865Z,12.89
2022-10-19T03:26:16.414Z,12.79
2022-10-19T03:28:44.290Z,13.22
2022-10-19T03:31:12.147Z,13.37
2022-10-19T03:33:40.754Z,13.42
2022-10-19T03:36:22.584Z,13.02
2022-10-19T03:38:56.381Z,13.05
2022-10-19T03:41:26.761Z,13.07
2022-10-19T03:43:54.589Z,12.72
2022-10-19T03:46:22.996Z,12.76
2022-10-19T03:48:51.089Z,12.60
2022-10-19T03:51:20.878Z,12.98
2022-10-19T03:53:49.522Z,13.37
2022-10-19T03:56:21.826Z,13.27
2022-10-19T03:58:52.001Z,12.88
2022-10-19T04:01:21.883Z,12.92
2022-10-19T04:03:54.210Z,13.03
2022-10-19T04:06:25.258Z,13.11
2022-10-19T04:08:53.647Z,13.17
2022-10-19T04:11:24.887Z,13.01
2022-10-19T04:13:53.793Z,12.89
2022-10-19T04:16:24.104Z,13.00
2022-10-19T04:18:52.304Z,13.42
2022-10-19T04:21:22.843Z,13.51
2022-10-19T04:23:50.949Z,13.70
2022-10-19T04:26:19.126Z,13.43
2022-10-19T04:28:48.473Z,13.58
2022-10-19T04:31:16.373Z,13.03
2022-10-19T04:33:44.272Z,13.30
2022-10-19T04:36:13.166Z,13.12
2022-10-19T04:38:42.006Z,12.88
2022-10-19T04:41:13.856Z,13.32
2022-10-19T04:43:42.171Z,13.46
2022-10-19T04:46:13.952Z,13.36
2022-10-19T04:48:42.239Z,13.04
2022-10-19T04:51:10.950Z,13.04
2022-10-19T04:53:41.124Z,13.19
2022-10-19T04:56:12.102Z,13.46
2022-10-19T04:58:39.971Z,13.22
2022-10-19T05:01:09.763Z,13.34
2022-10-19T05:03:39.281Z,13.24
2022-10-19T05:06:07.655Z,13.42
2022-10-19T05:08:36.260Z,12.93
2022-10-19T05:11:04.894Z,13.40
2022-10-19T05:13:33.524Z,13.12
2022-10-19T05:16:03.373Z,13.21
2022-10-19T05:18:31.253Z,13.43
2022-10-19T05:21:05.240Z,13.21
2022-10-19T05:26:08.412Z,13.38
2022-10-19T05:28:38.250Z,13.12
2022-10-19T05:31:07.697Z,13.15
2022-10-19T05:33:36.419Z,12.46
2022-10-19T05:36:18.573Z,12.72
2022-10-19T05:38:48.137Z,12.53
2022-10-19T05:41:16.801Z,12.43
2022-10-19T05:43:45.016Z,13.00
2022-10-19T05:46:14.720Z,13.16
2022-10-19T05:48:42.615Z,12.72
2022-10-19T05:51:13.387Z,12.79
2022-10-19T05:53:43.291Z,12.74
2022-10-19T05:56:15.730Z,12.36
2022-10-19T05:58:44.061Z,12.51
2022-10-19T06:01:12.727Z,12.97
2022-10-19T06:03:40.908Z,12.69
2022-10-19T06:06:09.893Z,13.09
2022-10-19T06:08:39.252Z,12.69
2022-10-19T06:11:10.490Z,12.86
2022-10-19T06:13:39.200Z,13.02
2022-10-19T06:16:08.404Z,12.66
2022-10-19T06:18:36.676Z,13.05
2022-10-19T06:21:07.611Z,12.85
2022-10-19T06:23:36.248Z,12.78
2022-10-19T06:26:06.185Z,12.44
2022-10-19T06:28:36.569Z,12.75
2022-10-19T06:31:07.159Z,12.72
2022-10-19T06:33:37.463Z,12.31
2022-10-19T06:36:09.598Z,12.16
2022-10-19T06:38:37.484Z,12.15
2022-10-19T06:41:05.542Z,12.14
2022-10-19T06:43:35.306Z,12.01
2022-10-19T06:46:05.362Z,11.97
2022-10-19T06:48:33.262Z,11.92
2022-10-19T06:51:06.201Z,11.89
2022-10-19T06:53:34.910Z,11.90
2022-10-19T06:56:04.826Z,11.87
2022-10-19T06:58:37.468Z,11.79
2022-10-19T07:01:07.634Z,12.02
2022-10-19T07:03:36.644Z,12.04
2022-10-19T07:06:06.659Z,11.97
2022-10-19T07:08:36.058Z,11.96
2022-10-19T07:11:07.136Z,12.07
2022-10-19T07:13:35.367Z,11.87
2022-10-19T07:16:06.846Z,12.34
2022-10-19T07:18:36.123Z,12.51
2022-10-19T07:21:06.576Z,12.21
2022-10-19T07:23:36.550Z,12.30
2022-10-19T07:26:06.611Z,12.55
2022-10-19T07:28:35.146Z,12.53
2022-10-19T07:31:08.576Z,12.77
2022-10-19T07:33:36.872Z,12.64
2022-10-19T07:36:07.411Z,12.91
2022-10-19T07:38:35.454Z,12.96
2022-10-19T07:41:05.893Z,12.51
2022-10-19T07:43:33.612Z,12.73
2022-10-19T07:46:03.186Z,12.61
2022-10-19T07:48:32.806Z,12.58
2022-10-19T07:51:02.402Z,12.60
2022-10-19T07:53:30.366Z,12.60
2022-10-19T07:56:04.694Z,12.78
2022-10-19T07:58:32.614Z,12.65
2022-10-19T08:01:01.734Z,13.08
2022-10-19T08:06:19.052Z,12.87
2022-10-19T08:08:47.553Z,12.97
2022-10-19T08:11:18.312Z,12.86
2022-10-19T08:13:46.537Z,12.73
2022-10-19T08:16:33.737Z,13.22
2022-10-19T08:19:04.016Z,13.16
2022-10-19T08:21:33.304Z,13.22
2022-10-19T08:24:01.473Z,13.18
2022-10-19T08:26:29.829Z,13.38
2022-10-19T08:29:01.020Z,13.37
2022-10-19T08:31:29.199Z,13.48
2022-10-19T08:33:57.428Z,13.46
2022-10-19T08:36:26.162Z,13.82
2022-10-19T08:38:55.334Z,13.75
2022-10-19T08:41:31.644Z,13.85
2022-10-19T08:44:15.725Z,13.21
2022-10-19T08:46:52.407Z,13.28
2022-10-19T08:49:24.280Z,13.62
2022-10-19T08:51:57.211Z,13.98
2022-10-19T08:54:33.757Z,13.66
2022-10-19T08:57:15.715Z,13.85
2022-10-19T08:59:50.735Z,13.62
2022-10-19T09:02:23.758Z,13.22
2022-10-19T09:04:58.766Z,13.84
2022-10-19T09:07:30.036Z,13.72
2022-10-19T09:10:03.700Z,13.43
2022-10-19T09:12:46.861Z,13.13
2022-10-19T09:15:18.836Z,13.36
2022-10-19T09:17:46.844Z,13.46
2022-10-19T09:20:18.391Z,13.15
2022-10-19T09:22:50.285Z,13.58
2022-10-19T09:25:22.666Z,13.62
2022-10-19T09:27:56.630Z,13.43
2022-10-19T09:30:25.248Z,13.54
2022-10-19T09:33:00.095Z,14.04
2022-10-19T09:35:32.876Z,13.79
2022-10-19T09:38:01.546Z,13.04
2022-10-19T09:40:32.692Z,13.02
2022-10-19T09:43:08.789Z,13.23
2022-10-19T09:45:41.778Z,13.36
2022-10-19T09:48:18.311Z,13.30
2022-10-19T09:50:51.482Z,13.20
2022-10-19T09:53:21.899Z,13.43
2022-10-19T09:55:54.239Z,13.29
2022-10-19T10:01:39.934Z,13.37
2022-10-19T10:04:14.870Z,13.43
2022-10-19T10:06:44.787Z,13.49
2022-10-19T10:09:17.363Z,13.06
2022-10-19T10:11:51.143Z,13.27
2022-10-19T10:14:22.543Z,13.29
2022-10-19T10:16:56.366Z,13.17
2022-10-19T10:19:29.680Z,13.11
2022-10-19T10:21:59.311Z,13.58
2022-10-19T10:24:29.452Z,13.81
2022-10-19T10:27:00.574Z,13.98
2022-10-19T10:29:30.716Z,14.06
2022-10-19T10:32:04.282Z,14.17
2022-10-19T10:34:49.472Z,13.87
2022-10-19T10:37:21.189Z,14.01
2022-10-19T10:39:53.242Z,13.85
2022-10-19T10:42:29.461Z,13.82
2022-10-19T10:44:57.827Z,13.58
2022-10-19T10:47:27.517Z,13.43
2022-10-19T10:49:58.750Z,13.75
2022-10-19T10:52:29.060Z,14.28
2022-10-19T10:55:02.898Z,14.37
2022-10-19T10:57:36.159Z,14.20
2022-10-19T11:00:11.209Z,13.82
2022-10-19T11:02:47.330Z,13.64
2022-10-19T11:05:20.546Z,13.60
2022-10-19T11:07:53.003Z,13.61
2022-10-19T11:10:39.188Z,13.63
2022-10-19T11:17:04.712Z,13.64
2022-10-19T11:19:39.285Z,13.61
2022-10-19T11:36:33.937Z,14.61
2022-10-19T11:39:20.016Z,14.73
2022-10-19T11:41:55.920Z,14.59
2022-10-19T11:44:36.646Z,14.15
2022-10-19T11:47:31.287Z,14.13
2022-10-19T11:50:10.901Z,14.00
2022-10-19T11:52:49.580Z,14.31
2022-10-19T11:55:28.718Z,14.46
2022-10-19T11:58:06.514Z,14.03
2022-10-19T12:00:41.697Z,14.43
2022-10-19T12:03:29.807Z,13.88
2022-10-19T12:06:09.168Z,13.82
2022-10-19T12:08:53.784Z,13.83
2022-10-19T12:11:33.109Z,13.97
2022-10-19T12:14:04.799Z,14.31
2022-10-19T12:16:38.930Z,14.12
2022-10-19T12:19:13.407Z,14.43
2022-10-19T12:21:43.193Z,14.36
2022-10-19T12:24:17.046Z,14.26
2022-10-19T12:26:46.541Z,14.43
2022-10-19T12:29:18.807Z,14.42
2022-10-19T12:31:48.012Z,14.30
2022-10-19T12:34:27.849Z,13.97
2022-10-19T12:37:01.771Z,14.20
2022-10-19T12:39:39.245Z,13.83
2022-10-19T12:42:20.211Z,14.05
2022-10-19T12:45:25.301Z,14.19
2022-10-19T12:48:21.863Z,14.54
2022-10-19T12:51:05.144Z,14.61
2022-10-19T12:53:38.046Z,14.57
2022-10-19T12:56:11.842Z,14.60
2022-10-19T12:58:48.161Z,14.36
2022-10-19T13:01:20.996Z,14.52
2022-10-19T13:03:51.871Z,14.75
2022-10-19T13:06:31.915Z,14.44
2022-10-19T13:09:02.974Z,14.53
2022-10-19T13:11:32.612Z,14.43
2022-10-19T13:14:06.481Z,14.97
2022-10-19T13:17:06.757Z,14.94
2022-10-19T13:19:34.997Z,14.74
2022-10-19T13:22:29.768Z,14.79
2022-10-19T13:25:21.429Z,15.00
2022-10-19T13:27:51.814Z,14.90
2022-10-19T13:31:03.385Z,14.84
2022-10-19T13:33:55.961Z,14.52
2022-10-19T13:36:26.144Z,14.54
2022-10-19T13:39:13.772Z,14.44
2022-10-19T13:41:51.206Z,14.59
2022-10-19T13:44:25.156Z,14.54
2022-10-19T13:47:24.393Z,14.46
2022-10-19T13:50:14.615Z,14.67
2022-10-19T13:53:01.441Z,14.66
2022-10-19T13:55:52.632Z,14.75
2022-10-19T13:58:49.583Z,14.75
2022-10-19T14:01:30.983Z,15.14
2022-10-19T14:04:18.184Z,15.11
2022-10-19T14:06:53.315Z,14.85
2022-10-19T14:09:38.812Z,14.74
2022-10-19T14:12:13.064Z,14.87
2022-10-19T14:14:42.974Z,14.99
2022-10-19T14:17:20.809Z,14.93
2022-10-19T14:19:51.406Z,14.90
2022-10-19T14:22:27.382Z,15.04
2022-10-19T14:25:02.376Z,14.99
2022-10-19T14:27:31.692Z,15.06
2022-10-19T14:29:59.994Z,14.83
2022-10-19T14:32:30.622Z,15.00
2022-10-19T14:37:33.435Z,15.32
2022-10-19T14:40:04.250Z,15.06
2022-10-19T14:42:41.595Z,15.25
2022-10-19T14:45:28.648Z,15.18
2022-10-19T14:48:00.248Z,15.50
2022-10-19T14:50:39.844Z,15.50
2022-10-19T14:53:32.931Z,15.79
2022-10-19T14:56:05.030Z,15.38
2022-10-19T14:58:40.986Z,15.67
2022-10-19T15:01:10.828Z,16.02
2022-10-19T15:03:43.879Z,15.98
2022-10-19T15:06:19.884Z,15.85
2022-10-19T15:08:51.846Z,15.99
2022-10-19T15:11:26.660Z,15.99
2022-10-19T15:14:01.563Z,15.77
2022-10-19T15:16:32.216Z,16.08
2022-10-19T15:19:05.479Z,16.33
2022-10-19T15:21:33.908Z,16.05
2022-10-19T15:24:10.201Z,16.23
2022-10-19T15:26:38.148Z,16.01
2022-10-19T15:29:12.752Z,15.92
2022-10-19T15:31:40.567Z,16.28
2022-10-19T15:34:24.720Z,15.83
2022-10-19T15:36:58.181Z,16.07
2022-10-19T15:39:38.922Z,16.23
2022-10-19T15:42:34.902Z,15.78
2022-10-19T15:45:03.100Z,15.45
2022-10-19T15:47:31.321Z,15.78
2022-10-19T15:50:02.593Z,16.00
2022-10-19T15:52:33.558Z,16.11
2022-10-19T15:55:02.400Z,16.07
2022-10-19T15:57:33.385Z,15.71
2022-10-19T16:00:07.808Z,15.21
2022-10-19T16:02:36.090Z,15.01
2022-10-19T16:07:39.282Z,14.68
2022-10-19T16:10:08.901Z,14.69
2022-10-19T16:12:36.892Z,14.64
2022-10-19T16:15:05.571Z,14.64
2022-10-19T16:17:34.504Z,14.53
2022-10-19T16:20:02.600Z,14.52
2022-10-19T16:22:32.422Z,14.22
2022-10-19T16:25:00.303Z,14.14
2022-10-19T16:27:28.334Z,13.91
2022-10-19T16:29:56.132Z,13.83
2022-10-19T16:32:24.110Z,13.54
2022-10-19T16:34:51.965Z,13.37
2022-10-19T16:37:19.782Z,13.39
2022-10-19T16:39:49.019Z,13.40
2022-10-19T16:42:17.010Z,13.38
2022-10-19T16:44:45.305Z,13.44
2022-10-19T16:47:13.869Z,13.51
2022-10-19T16:49:41.676Z,13.47
2022-10-19T16:52:13.862Z,13.45
2022-10-19T16:54:41.669Z,13.37
2022-10-19T16:57:10.977Z,13.35
2022-10-19T16:59:38.896Z,13.27
2022-10-19T17:02:11.069Z,13.26
2022-10-19T17:04:41.586Z,13.01
2022-10-19T17:07:09.467Z,13.16
2022-10-19T17:09:41.694Z,13.16
2022-10-19T17:12:12.436Z,13.23
2022-10-19T17:14:42.038Z,13.11
2022-10-19T17:17:11.611Z,13.05
2022-10-19T17:19:39.818Z,12.62
2022-10-19T17:22:07.654Z,12.73
2022-10-19T17:24:37.346Z,12.43
2022-10-19T17:27:05.262Z,12.02
2022-10-19T17:29:34.682Z,12.10
2022-10-19T17:32:02.710Z,12.30
2022-10-19T17:34:30.597Z,12.33
2022-10-19T17:36:59.606Z,11.87
2022-10-19T17:39:29.974Z,11.97
2022-10-19T17:42:01.682Z,11.92
2022-10-19T17:44:31.570Z,11.82
2022-10-19T17:47:01.881Z,12.02
2022-10-19T17:49:30.380Z,12.18
2022-10-19T17:51:58.413Z,12.36
2022-10-19T17:54:26.489Z,12.15
2022-10-19T17:56:54.447Z,12.30
2022-10-19T17:59:34.930Z,12.37
2022-10-19T18:02:07.487Z,12.30
2022-10-19T18:07:04.211Z,12.24
2022-10-19T18:09:32.509Z,12.26
2022-10-19T18:12:04.784Z,12.24
2022-10-19T18:14:35.291Z,12.15
2022-10-19T18:17:04.642Z,12.10
2022-10-19T18:19:33.206Z,11.87
2022-10-19T18:22:01.029Z,11.85
2022-10-19T18:24:29.232Z,11.83
2022-10-19T18:26:57.249Z,11.28
2022-10-19T18:29:27.057Z,11.11
2022-10-19T18:31:55.673Z,11.46
2022-10-19T18:34:26.576Z,11.57
2022-10-19T18:36:55.425Z,11.62
2022-10-19T18:39:23.967Z,11.55
2022-10-19T18:41:55.136Z,11.53
2022-10-19T18:44:27.129Z,11.49
2022-10-19T18:46:56.715Z,11.49
2022-10-19T18:49:26.321Z,11.39
2022-10-19T18:51:55.870Z,11.24
2022-10-19T18:54:26.168Z,11.34
2022-10-19T18:56:54.415Z,11.37
2022-10-19T18:59:22.336Z,10.99
2022-10-19T19:01:50.465Z,11.32
2022-10-19T19:04:18.432Z,11.43
2022-10-19T19:06:47.707Z,11.42
2022-10-19T19:09:17.329Z,11.38
2022-10-19T19:11:45.268Z,11.45
2022-10-19T19:14:14.952Z,11.37
2022-10-19T19:16:45.028Z,11.30
2022-10-19T19:19:14.652Z,11.30
2022-10-19T19:21:44.426Z,11.32
2022-10-19T19:24:17.085Z,11.23
2022-10-19T19:26:48.408Z,11.07
2022-10-19T19:29:16.832Z,10.94
2022-10-19T19:31:44.707Z,10.90
2022-10-19T19:34:13.001Z,10.98
2022-10-19T19:36:46.911Z,10.97
2022-10-19T19:39:18.653Z,10.83
2022-10-19T19:41:47.567Z,10.78
2022-10-19T19:44:15.419Z,10.65
2022-10-19T19:46:43.559Z,10.80
2022-10-19T19:49:11.926Z,10.99
2022-10-19T19:51:39.937Z,10.97
2022-10-19T19:54:07.892Z,10.86
2022-10-19T19:56:37.535Z,10.87
2022-10-19T19:59:05.565Z,10.74
2022-10-19T20:01:33.948Z,10.58
2022-10-19T20:06:36.648Z,10.64
2022-10-19T20:09:05.342Z,10.60
2022-10-19T20:11:34.537Z,10.50
2022-10-19T20:14:05.397Z,10.59
2022-10-19T20:16:33.651Z,10.38
2022-10-19T20:19:05.304Z,10.45
2022-10-19T20:21:33.711Z,10.47
2022-10-19T20:24:02.320Z,10.25
2022-10-19T20:26:30.544Z,10.29
2022-10-19T20:28:58.998Z,10.48
2022-10-19T20:34:00.956Z,10.32
2022-10-19T20:36:28.967Z,10.26
2022-10-19T20:38:58.730Z,10.34
2022-10-19T20:41:28.363Z,10.26
2022-10-19T20:43:57.390Z,10.37
2022-10-19T20:46:27.353Z,10.33
2022-10-19T20:48:59.572Z,10.17
2022-10-19T20:51:32.021Z,10.32
2022-10-19T20:54:01.556Z,10.36
2022-10-19T20:56:30.951Z,10.32
2022-10-19T20:59:00.757Z,10.30
2022-10-19T21:01:29.921Z,10.26
2022-10-19T21:04:03.226Z,10.15
2022-10-19T21:06:32.857Z,10.17
2022-10-19T21:09:01.525Z,10.13
2022-10-19T21:11:32.097Z,10.09
2022-10-19T21:14:01.258Z,9.90
2022-10-19T21:16:30.259Z,9.84
2022-10-19T21:19:00.648Z,9.71
2022-10-19T21:21:31.951Z,9.89
2022-10-19T21:24:04.025Z,9.92
2022-10-19T21:26:34.352Z,9.90
2022-10-19T21:29:03.525Z,9.63
2022-10-19T21:31:31.572Z,9.85
2022-10-19T21:34:04.473Z,9.91
2022-10-19T21:36:32.309Z,9.87
2022-10-19T21:39:00.159Z,9.83
2022-10-19T21:41:28.052Z,9.90
2022-10-19T21:43:55.818Z,9.84
2022-10-19T21:46:24.768Z,9.82
2022-10-19T21:48:53.714Z,9.78
2022-10-19T21:51:35.906Z,9.62
2022-10-19T21:54:04.602Z,9.41
2022-10-19T21:56:33.115Z,9.62
2022-10-19T21:59:01.489Z,9.67
2022-10-19T22:01:37.124Z,9.62
2022-10-19T22:04:09.953Z,9.60
2022-10-19T22:06:39.214Z,9.62
2022-10-19T22:09:08.716Z,9.52
2022-10-19T22:11:36.946Z,9.60
2022-10-19T22:14:05.878Z,9.55
2022-10-19T22:16:36.847Z,9.45
2022-10-19T22:19:05.967Z,9.40
2022-10-19T22:21:35.580Z,9.41
2022-10-19T22:24:06.919Z,9.38
2022-10-19T22:26:38.348Z,9.13
2022-10-19T22:29:07.454Z,9.10
2022-10-19T22:31:36.413Z,8.90
2022-10-19T22:34:06.897Z,8.95
2022-10-19T22:36:34.644Z,8.95
2022-10-19T22:39:04.238Z,9.00
2022-10-19T22:41:32.130Z,8.94
2022-10-19T22:43:59.938Z,8.92
2022-10-19T22:46:27.765Z,8.99
2022-10-19T22:48:55.729Z,8.92
2022-10-19T22:51:23.783Z,8.96
2022-10-19T22:53:51.592Z,8.87
2022-10-19T22:56:20.884Z,8.88
2022-10-19T22:58:48.709Z,8.87
2022-10-19T23:01:17.386Z,8.88
2022-10-19T23:03:45.335Z,8.86
2022-10-19T23:06:15.313Z,8.92
2022-10-19T23:08:44.015Z,8.95
2022-10-19T23:11:13.474Z,8.85
2022-10-19T23:13:42.996Z,8.86
2022-10-19T23:16:11.219Z,8.87
2022-10-19T23:18:41.145Z,8.64
2022-10-19T23:21:11.588Z,8.79
2022-10-19T23:23:39.514Z,8.67
2022-10-19T23:26:09.981Z,8.68
2022-10-19T23:28:38.268Z,8.64
2022-10-19T23:31:09.502Z,8.41
2022-10-19T23:33:37.734Z,8.25
2022-10-19T23:36:07.623Z,8.56
2022-10-19T23:38:35.805Z,8.55
2022-10-19T23:41:03.760Z,8.27
2022-10-19T23:43:31.747Z,8.42
2022-10-19T23:45:59.895Z,8.44
2022-10-19T23:48:29.929Z,8.33
2022-10-19T23:50:59.684Z,8.35
2022-10-19T23:53:28.548Z,8.33
2022-10-19T23:55:59.696Z,8.48
2022-10-19T23:58:27.913Z,8.33
